createdAt,value
2022-09-21T00:01:27.390Z,61.66
2022-09-21T00:03:56.808Z,61.37
2022-09-21T00:06:25.441Z,61.68
2022-09-21T00:08:53.089Z,61.62
2022-09-21T00:11:24.774Z,61.69
2022-09-21T00:13:55.293Z,61.29
2022-09-21T00:16:23.794Z,61.57
2022-09-21T00:18:51.485Z,61.65
2022-09-21T00:21:19.291Z,61.98
2022-09-21T00:23:46.880Z,62.19
2022-09-21T00:26:16.894Z,62.48
2022-09-21T00:28:44.667Z,62.05
2022-09-21T00:31:14.484Z,62.90
2022-09-21T00:33:43.487Z,62.65
2022-09-21T00:36:14.843Z,62.05
2022-09-21T00:38:42.548Z,62.12
2022-09-21T00:41:10.731Z,61.71
2022-09-21T00:43:43.078Z,61.43
2022-09-21T00:46:16.209Z,61.40
2022-09-21T00:48:43.599Z,60.95
2022-09-21T00:51:11.231Z,61.00
2022-09-21T00:53:38.788Z,61.24
2022-09-21T00:56:06.956Z,60.93
2022-09-21T00:58:40.488Z,60.93
2022-09-21T01:01:08.095Z,60.94
2022-09-21T01:03:35.716Z,60.85
2022-09-21T01:06:03.533Z,60.78
2022-09-21T01:08:31.498Z,60.78
2022-09-21T01:11:22.829Z,60.79
2022-09-21T01:14:08.831Z,60.86
2022-09-21T01:17:03.686Z,60.82
2022-09-21T01:19:39.840Z,60.78
2022-09-21T01:22:33.015Z,61.37
2022-09-21T01:25:21.858Z,61.77
2022-09-21T01:28:07.115Z,61.70
2022-09-21T01:30:36.364Z,61.39
2022-09-21T01:33:13.973Z,61.25
2022-09-21T01:35:48.576Z,61.26
2022-09-21T01:38:22.095Z,61.49
2022-09-21T01:40:52.924Z,61.79
2022-09-21T01:43:31.814Z,61.80
2022-09-21T01:46:02.087Z,61.67
2022-09-21T01:48:35.140Z,62.03
2022-09-21T01:51:06.378Z,61.63
2022-09-21T01:53:49.536Z,61.86
2022-09-21T01:56:31.061Z,61.79
2022-09-21T01:59:07.484Z,61.72
2022-09-21T02:01:52.311Z,61.64
2022-09-21T02:04:19.932Z,61.72
2022-09-21T02:06:47.843Z,61.59
2022-09-21T02:09:15.201Z,61.53
2022-09-21T02:11:44.861Z,61.39
2022-09-21T02:14:18.441Z,61.84
2022-09-21T02:16:58.320Z,61.67
2022-09-21T02:19:54.323Z,61.92
2022-09-21T02:22:36.225Z,61.65
2022-09-21T02:25:10.633Z,61.80
2022-09-21T02:27:40.934Z,61.36
2022-09-21T02:30:18.135Z,61.57
2022-09-21T02:32:51.376Z,61.66
2022-09-21T02:36:09.903Z,61.33
2022-09-21T02:38:53.468Z,61.40
2022-09-21T02:41:28.308Z,61.48
2022-09-21T02:44:01.428Z,61.30
2022-09-21T02:46:29.615Z,61.20
2022-09-21T02:49:01.164Z,61.00
2022-09-21T02:51:33.912Z,61.12
2022-09-21T02:54:04.653Z,60.99
2022-09-21T02:56:32.110Z,61.23
2022-09-21T02:59:02.152Z,61.28
2022-09-21T03:01:31.073Z,61.52
2022-09-21T03:03:58.848Z,61.21
2022-09-21T03:06:26.424Z,61.71
2022-09-21T03:08:53.989Z,61.64
2022-09-21T03:11:21.258Z,61.87
2022-09-21T03:13:48.554Z,61.94
2022-09-21T03:16:16.421Z,61.89
2022-09-21T03:18:44.330Z,61.67
2022-09-21T03:21:12.250Z,61.36
2022-09-21T03:23:40.395Z,61.65
2022-09-21T03:26:08.518Z,61.51
2022-09-21T03:28:35.875Z,61.53
2022-09-21T03:31:03.477Z,61.30
2022-09-21T03:33:30.836Z,61.31
2022-09-21T03:35:58.179Z,60.90
2022-09-21T03:38:26.866Z,60.92
2022-09-21T03:40:57.796Z,60.78
2022-09-21T03:43:25.465Z,60.81
2022-09-21T03:45:53.330Z,60.57
2022-09-21T03:48:21.602Z,60.79
2022-09-21T03:50:48.946Z,60.58
2022-09-21T03:53:16.882Z,60.64
2022-09-21T03:55:44.191Z,60.43
2022-09-21T03:58:11.478Z,60.06
2022-09-21T04:00:39.292Z,59.84
2022-09-21T04:03:06.887Z,60.02
2022-09-21T04:05:34.450Z,59.82
2022-09-21T04:08:02.214Z,59.65
2022-09-21T04:10:33.153Z,59.79
2022-09-21T04:13:02.067Z,59.68
2022-09-21T04:15:29.992Z,59.81
2022-09-21T04:17:57.389Z,60.31
2022-09-21T04:20:24.710Z,60.58
2022-09-21T04:22:52.684Z,60.34
2022-09-21T04:25:20.575Z,60.67
2022-09-21T04:27:47.910Z,60.70
2022-09-21T04:30:16.599Z,60.70
2022-09-21T04:32:44.083Z,61.20
2022-09-21T04:35:11.347Z,60.86
2022-09-21T04:37:38.898Z,60.93
2022-09-21T04:40:07.643Z,60.81
2022-09-21T04:42:35.011Z,61.29
2022-09-21T04:45:03.331Z,61.24
2022-09-21T04:47:31.347Z,60.96
2022-09-21T04:49:58.674Z,61.52
2022-09-21T04:52:26.435Z,60.96
2022-09-21T04:54:53.751Z,61.42
2022-09-21T04:57:21.067Z,61.33
2022-09-21T04:59:48.653Z,61.32
2022-09-21T05:02:15.960Z,61.60
2022-09-21T05:04:46.397Z,61.59
2022-09-21T05:07:16.918Z,62.08
2022-09-21T05:10:02.847Z,61.85
2022-09-21T05:12:35.963Z,61.75
2022-09-21T05:15:05.842Z,61.69
2022-09-21T05:17:35.560Z,61.84
2022-09-21T05:20:03.723Z,61.59
2022-09-21T05:22:31.019Z,61.61
2022-09-21T05:24:58.595Z,61.95
2022-09-21T05:27:26.082Z,62.26
2022-09-21T05:29:53.902Z,62.47
2022-09-21T05:32:41.790Z,62.82
2022-09-21T05:35:29.124Z,63.02
2022-09-21T05:38:04.979Z,62.33
2022-09-21T05:40:33.063Z,62.67
2022-09-21T05:43:00.887Z,61.80
2022-09-21T05:45:28.984Z,61.39
2022-09-21T05:48:19.834Z,60.88
2022-09-21T05:51:09.042Z,60.52
2022-09-21T05:54:14.100Z,59.82
2022-09-21T05:57:05.048Z,59.74
2022-09-21T06:00:06.361Z,59.91
2022-09-21T06:02:50.905Z,59.80
2022-09-21T06:05:18.868Z,60.18
2022-09-21T06:07:46.153Z,60.24
2022-09-21T06:10:14.035Z,59.61
2022-09-21T06:12:42.332Z,59.28
2022-09-21T06:15:13.680Z,59.46
2022-09-21T06:17:41.214Z,59.34
2022-09-21T06:20:09.474Z,59.41
2022-09-21T06:22:36.755Z,59.18
2022-09-21T06:25:04.261Z,59.20
2022-09-21T06:27:31.828Z,58.85
2022-09-21T06:29:59.154Z,58.15
2022-09-21T06:32:26.683Z,58.45
2022-09-21T06:34:54.254Z,57.18
2022-09-21T06:37:21.584Z,57.29
2022-09-21T06:39:48.851Z,56.23
2022-09-21T06:42:16.469Z,55.38
2022-09-21T06:44:44.271Z,55.69
2022-09-21T06:47:11.595Z,54.98
2022-09-21T06:49:42.349Z,55.48
2022-09-21T06:52:10.137Z,54.91
2022-09-21T06:54:41.027Z,54.55
2022-09-21T06:57:08.577Z,54.44
2022-09-21T06:59:35.896Z,55.18
2022-09-21T07:02:03.820Z,54.80
2022-09-21T07:04:31.956Z,55.36
2022-09-21T07:07:02.633Z,54.68
2022-09-21T07:12:18.967Z,55.05
2022-09-21T07:14:46.592Z,54.20
2022-09-21T07:17:15.735Z,54.48
2022-09-21T07:19:43.220Z,53.90
2022-09-21T07:22:10.776Z,53.84
2022-09-21T07:24:38.064Z,53.89
2022-09-21T07:27:05.388Z,54.14
2022-09-21T07:29:32.926Z,54.02
2022-09-21T07:32:00.296Z,54.62
2022-09-21T07:34:27.635Z,54.12
2022-09-21T07:36:55.212Z,53.85
2022-09-21T07:39:22.504Z,54.52
2022-09-21T07:41:49.805Z,53.65
2022-09-21T07:44:17.435Z,53.53
2022-09-21T07:46:48.220Z,53.12
2022-09-21T07:49:15.653Z,53.46
2022-09-21T07:51:43.570Z,52.82
2022-09-21T07:54:10.989Z,52.56
2022-09-21T07:56:38.311Z,52.57
2022-09-21T07:59:06.008Z,52.46
2022-09-21T08:01:35.164Z,51.96
2022-09-21T08:04:04.318Z,52.21
2022-09-21T08:06:33.056Z,52.57
2022-09-21T08:09:01.342Z,51.90
2022-09-21T08:11:30.249Z,50.67
2022-09-21T08:14:00.028Z,50.24
2022-09-21T08:16:29.079Z,50.77
2022-09-21T08:19:20.363Z,50.84
2022-09-21T08:21:54.917Z,50.00
2022-09-21T08:24:26.668Z,50.84
2022-09-21T08:26:55.747Z,50.34
2022-09-21T08:29:25.440Z,49.99
2022-09-21T08:31:56.207Z,48.97
2022-09-21T08:34:24.079Z,49.11
2022-09-21T08:36:55.200Z,50.17
2022-09-21T08:39:23.943Z,49.32
2022-09-21T08:42:03.578Z,49.11
2022-09-21T08:44:48.763Z,48.72
2022-09-21T08:47:19.918Z,48.58
2022-09-21T08:49:51.552Z,48.46
2022-09-21T08:52:19.711Z,48.75
2022-09-21T08:55:18.700Z,48.63
2022-09-21T08:57:46.062Z,48.43
2022-09-21T09:00:15.919Z,48.20
2022-09-21T09:03:04.224Z,48.30
2022-09-21T09:05:55.760Z,48.96
2022-09-21T09:08:58.515Z,48.24
2022-09-21T09:11:52.752Z,48.05
2022-09-21T09:14:36.628Z,47.99
2022-09-21T09:17:19.007Z,48.57
2022-09-21T09:20:15.075Z,48.09
2022-09-21T09:22:57.975Z,48.57
2022-09-21T09:25:25.276Z,47.95
2022-09-21T09:27:58.863Z,48.67
2022-09-21T09:30:28.535Z,47.39
2022-09-21T09:33:02.135Z,47.01
2022-09-21T09:35:33.311Z,47.45
2022-09-21T09:38:25.975Z,48.46
2022-09-21T09:41:05.691Z,46.88
2022-09-21T09:43:36.240Z,46.98
2022-09-21T09:46:19.410Z,47.30
2022-09-21T09:48:58.807Z,46.79
2022-09-21T09:51:26.823Z,46.80
2022-09-21T09:53:58.320Z,47.25
2022-09-21T09:56:25.648Z,47.40
2022-09-21T09:58:57.407Z,46.30
2022-09-21T10:01:44.296Z,46.26
2022-09-21T10:04:13.847Z,45.87
2022-09-21T10:06:46.098Z,45.23
2022-09-21T10:09:25.683Z,45.33
2022-09-21T10:11:57.029Z,45.54
2022-09-21T10:14:25.819Z,44.64
2022-09-21T10:16:53.653Z,45.11
2022-09-21T10:19:23.708Z,44.58
2022-09-21T10:21:56.352Z,45.09
2022-09-21T10:24:26.899Z,45.54
2022-09-21T10:26:56.762Z,45.50
2022-09-21T10:29:23.968Z,44.92
2022-09-21T10:32:00.367Z,44.86
2022-09-21T10:34:30.423Z,45.55
2022-09-21T10:37:00.114Z,45.91
2022-09-21T10:39:32.142Z,46.17
2022-09-21T10:41:59.382Z,44.76
2022-09-21T10:44:29.648Z,45.35
2022-09-21T10:46:58.616Z,45.23
2022-09-21T10:49:27.567Z,45.49
2022-09-21T10:51:57.537Z,43.10
2022-09-21T10:54:28.481Z,44.17
2022-09-21T10:57:03.429Z,45.21
2022-09-21T10:59:33.210Z,44.10
2022-09-21T11:02:02.809Z,44.45
2022-09-21T11:04:39.903Z,42.76
2022-09-21T11:07:15.580Z,42.22
2022-09-21T11:09:53.818Z,43.36
2022-09-21T11:12:43.092Z,43.10
2022-09-21T11:15:30.798Z,44.03
2022-09-21T11:18:13.030Z,44.00
2022-09-21T11:20:49.929Z,42.80
2022-09-21T11:23:32.689Z,43.53
2022-09-21T11:26:35.157Z,42.46
2022-09-21T11:29:08.952Z,41.14
2022-09-21T11:31:55.187Z,41.56
2022-09-21T11:34:54.181Z,42.10
2022-09-21T11:37:30.907Z,39.51
2022-09-21T11:40:24.586Z,39.72
2022-09-21T11:43:13.615Z,39.89
2022-09-21T11:46:05.740Z,40.62
2022-09-21T11:49:18.223Z,39.94
2022-09-21T11:52:09.170Z,39.50
2022-09-21T11:55:18.875Z,40.32
2022-09-21T11:57:57.105Z,40.05
2022-09-21T12:00:26.600Z,39.81
2022-09-21T12:03:16.032Z,40.59
2022-09-21T12:06:01.729Z,40.30
2022-09-21T12:09:20.250Z,40.36
2022-09-21T12:12:02.563Z,41.39
2022-09-21T12:14:42.571Z,41.96
2022-09-21T12:17:32.305Z,42.19
2022-09-21T12:20:15.748Z,42.41
2022-09-21T12:22:45.403Z,42.02
2022-09-21T12:25:26.342Z,42.21
2022-09-21T12:28:20.820Z,41.81
2022-09-21T12:30:51.368Z,40.69
2022-09-21T12:33:31.467Z,40.72
2022-09-21T12:36:07.912Z,41.04
2022-09-21T12:38:41.035Z,41.30
2022-09-21T12:41:17.959Z,40.76
2022-09-21T12:44:00.991Z,39.77
2022-09-21T12:46:32.332Z,39.43
2022-09-21T12:49:02.038Z,39.73
2022-09-21T12:51:40.478Z,39.21
2022-09-21T12:54:30.936Z,39.71
2022-09-21T12:57:42.529Z,41.03
2022-09-21T13:00:11.916Z,42.37
2022-09-21T13:02:50.789Z,40.11
2022-09-21T13:05:41.419Z,40.87
2022-09-21T13:08:17.460Z,40.26
2022-09-21T13:10:54.705Z,40.61
2022-09-21T13:13:29.585Z,40.59
2022-09-21T13:16:04.533Z,39.74
2022-09-21T13:18:36.402Z,41.27
2022-09-21T13:21:26.292Z,41.09
2022-09-21T13:23:57.561Z,41.19
2022-09-21T13:26:39.032Z,41.83
2022-09-21T13:29:27.623Z,41.23
2022-09-21T13:32:11.226Z,39.66
2022-09-21T13:34:43.326Z,40.95
2022-09-21T13:37:25.577Z,40.09
2022-09-21T13:40:16.187Z,41.38
2022-09-21T13:42:48.538Z,40.76
2022-09-21T13:45:18.674Z,39.91
2022-09-21T13:47:48.000Z,40.78
2022-09-21T13:50:37.116Z,40.52
2022-09-21T13:53:25.536Z,41.24
2022-09-21T13:56:02.105Z,41.52
2022-09-21T13:58:41.090Z,41.32
2022-09-21T14:01:47.213Z,41.25
2022-09-21T14:04:25.383Z,41.13
2022-09-21T14:06:54.198Z,40.85
2022-09-21T14:09:29.547Z,41.25
2022-09-21T14:12:01.624Z,40.56
2022-09-21T14:14:36.043Z,39.79
2022-09-21T14:17:49.314Z,39.90
2022-09-21T14:20:32.790Z,39.72
2022-09-21T14:23:28.394Z,39.26
2022-09-21T14:25:57.862Z,39.64
2022-09-21T14:28:34.762Z,38.68
2022-09-21T14:31:07.211Z,40.43
2022-09-21T14:34:01.659Z,40.18
2022-09-21T14:36:38.348Z,40.31
2022-09-21T14:39:07.859Z,39.65
2022-09-21T14:41:40.729Z,40.04
2022-09-21T14:44:19.974Z,39.86
2022-09-21T14:46:50.849Z,40.34
2022-09-21T14:49:19.355Z,40.17
2022-09-21T14:52:12.947Z,40.83
2022-09-21T14:55:17.174Z,41.86
2022-09-21T14:57:55.770Z,40.79
2022-09-21T15:00:35.486Z,41.32
2022-09-21T15:03:22.219Z,40.28
2022-09-21T15:05:55.066Z,39.79
2022-09-21T15:09:09.279Z,39.07
2022-09-21T15:11:41.061Z,39.97
2022-09-21T15:14:34.763Z,39.40
2022-09-21T15:17:19.599Z,39.64
2022-09-21T15:19:47.170Z,39.35
2022-09-21T15:22:22.270Z,40.48
2022-09-21T15:25:02.772Z,39.66
2022-09-21T15:27:32.915Z,39.31
2022-09-21T15:30:02.473Z,39.13
2022-09-21T15:32:36.698Z,39.29
2022-09-21T15:35:24.717Z,39.13
2022-09-21T15:37:52.479Z,39.14
2022-09-21T15:40:24.613Z,40.06
2022-09-21T15:43:00.862Z,39.89
2022-09-21T15:45:30.460Z,40.58
2022-09-21T15:47:58.378Z,41.10
2022-09-21T15:50:27.297Z,41.63
2022-09-21T15:52:59.699Z,41.61
2022-09-21T15:55:30.270Z,41.69
2022-09-21T15:57:58.120Z,41.40
2022-09-21T16:00:26.397Z,40.94
2022-09-21T16:03:19.870Z,40.49
2022-09-21T16:05:49.924Z,40.72
2022-09-21T16:08:31.443Z,40.71
2022-09-21T16:11:14.128Z,41.20
2022-09-21T16:14:04.706Z,40.64
2022-09-21T16:16:32.160Z,41.29
2022-09-21T16:19:00.116Z,41.18
2022-09-21T16:21:35.139Z,41.63
2022-09-21T16:24:20.489Z,42.09
2022-09-21T16:27:03.268Z,42.41
2022-09-21T16:29:39.297Z,42.42
2022-09-21T16:32:18.817Z,42.90
2022-09-21T16:34:48.258Z,43.13
2022-09-21T16:37:24.371Z,43.07
2022-09-21T16:39:52.999Z,43.17
2022-09-21T16:42:21.279Z,43.33
2022-09-21T16:44:48.928Z,43.45
2022-09-21T16:47:22.780Z,43.40
2022-09-21T16:49:50.375Z,44.01
2022-09-21T16:52:18.120Z,43.97
2022-09-21T16:54:47.591Z,44.01
2022-09-21T16:57:14.894Z,44.31
2022-09-21T16:59:42.845Z,44.33
2022-09-21T17:02:12.222Z,44.34
2022-09-21T17:04:40.171Z,44.23
2022-09-21T17:07:13.450Z,44.25
2022-09-21T17:09:44.373Z,44.70
2022-09-21T17:12:17.532Z,45.22
2022-09-21T17:14:47.028Z,45.23
2022-09-21T17:17:20.922Z,45.08
2022-09-21T17:19:50.113Z,45.54
2022-09-21T17:22:18.437Z,45.52
2022-09-21T17:24:51.366Z,46.17
2022-09-21T17:27:21.833Z,46.41
2022-09-21T17:29:50.034Z,46.58
2022-09-21T17:32:21.679Z,46.76
2022-09-21T17:35:01.858Z,47.01
2022-09-21T17:37:29.914Z,46.45
2022-09-21T17:39:57.538Z,46.84
2022-09-21T17:42:25.977Z,47.38
2022-09-21T17:45:12.389Z,47.27
2022-09-21T17:47:40.855Z,47.14
2022-09-21T17:50:17.558Z,47.38
2022-09-21T17:53:04.291Z,47.16
2022-09-21T17:55:32.075Z,47.73
2022-09-21T17:58:25.772Z,47.77
2022-09-21T18:01:12.795Z,47.58
2022-09-21T18:03:44.487Z,47.54
2022-09-21T18:06:12.438Z,47.48
2022-09-21T18:08:40.966Z,47.86
2022-09-21T18:11:27.024Z,47.98
2022-09-21T18:14:06.937Z,47.76
2022-09-21T18:17:11.541Z,48.68
2022-09-21T18:19:55.027Z,48.19
2022-09-21T18:22:55.114Z,48.55
2022-09-21T18:25:32.482Z,47.90
2022-09-21T18:28:03.405Z,47.98
2022-09-21T18:30:31.765Z,48.54
2022-09-21T18:33:27.695Z,48.81
2022-09-21T18:36:27.606Z,48.77
2022-09-21T18:39:13.740Z,48.95
2022-09-21T18:41:46.752Z,49.26
2022-09-21T18:44:13.937Z,49.47
2022-09-21T18:47:03.216Z,49.63
2022-09-21T18:49:38.510Z,49.97
2022-09-21T18:52:24.868Z,50.03
2022-09-21T18:54:52.905Z,50.12
2022-09-21T18:57:23.332Z,50.32
2022-09-21T18:59:50.920Z,49.86
2022-09-21T19:02:20.268Z,50.42
2022-09-21T19:04:49.252Z,50.67
2022-09-21T19:07:35.282Z,50.83
2022-09-21T19:10:14.243Z,51.42
2022-09-21T19:13:03.127Z,51.58
2022-09-21T19:16:01.999Z,51.60
2022-09-21T19:18:46.043Z,52.02
2022-09-21T19:21:32.604Z,51.87
2022-09-21T19:24:05.789Z,51.93
2022-09-21T19:26:55.894Z,52.04
2022-09-21T19:29:40.931Z,52.11
2022-09-21T19:32:17.641Z,52.61
2022-09-21T19:34:45.353Z,52.25
2022-09-21T19:37:13.032Z,52.25
2022-09-21T19:39:40.700Z,52.30
2022-09-21T19:42:09.823Z,52.29
2022-09-21T19:45:01.861Z,52.61
2022-09-21T19:47:31.196Z,52.71
2022-09-21T19:50:15.900Z,52.67
2022-09-21T19:52:43.874Z,52.69
2022-09-21T19:55:35.523Z,53.18
2022-09-21T19:58:21.975Z,53.17
2022-09-21T20:00:54.768Z,53.72
2022-09-21T20:03:31.460Z,54.01
2022-09-21T20:06:06.782Z,53.54
2022-09-21T20:09:06.165Z,53.68
2022-09-21T20:11:44.612Z,53.37
2022-09-21T20:14:20.746Z,53.72
2022-09-21T20:16:55.407Z,53.45
2022-09-21T20:19:44.417Z,54.04
2022-09-21T20:22:17.502Z,54.43
2022-09-21T20:24:52.109Z,54.56
2022-09-21T20:27:34.816Z,54.34
2022-09-21T20:30:11.856Z,54.52
2022-09-21T20:32:41.331Z,54.84
2022-09-21T20:35:30.581Z,54.67
2022-09-21T20:38:02.296Z,54.91
2022-09-21T20:40:31.153Z,54.79
2022-09-21T20:42:59.076Z,54.52
2022-09-21T20:45:26.743Z,55.23
2022-09-21T20:47:55.212Z,55.58
2022-09-21T20:50:25.467Z,55.55
2022-09-21T20:52:52.750Z,55.82
2022-09-21T20:55:20.480Z,55.63
2022-09-21T20:57:47.864Z,56.00
2022-09-21T21:00:16.753Z,55.47
2022-09-21T21:02:44.395Z,55.69
2022-09-21T21:05:11.746Z,55.85
2022-09-21T21:07:59.257Z,55.69
2022-09-21T21:10:26.830Z,55.43
2022-09-21T21:12:54.149Z,55.49
2022-09-21T21:15:21.432Z,55.34
2022-09-21T21:17:49.246Z,55.15
2022-09-21T21:20:17.266Z,55.33
2022-09-21T21:22:45.867Z,55.40
2022-09-21T21:25:13.448Z,55.37
2022-09-21T21:27:40.755Z,55.47
2022-09-21T21:30:09.588Z,55.77
2022-09-21T21:32:37.573Z,55.49
2022-09-21T21:35:05.711Z,55.68
2022-09-21T21:37:33.256Z,55.33
2022-09-21T21:40:01.381Z,55.14
2022-09-21T21:42:29.573Z,55.74
2022-09-21T21:44:57.054Z,55.51
2022-09-21T21:47:41.101Z,55.69
2022-09-21T21:50:09.796Z,55.80
2022-09-21T21:52:37.744Z,55.72
2022-09-21T21:55:05.771Z,55.60
2022-09-21T21:57:33.261Z,55.77
2022-09-21T22:00:00.999Z,55.81
2022-09-21T22:02:29.226Z,55.99
2022-09-21T22:04:56.864Z,55.96
2022-09-21T22:07:24.144Z,55.59
2022-09-21T22:09:51.437Z,55.37
2022-09-21T22:12:18.994Z,55.53
2022-09-21T22:14:47.628Z,55.92
2022-09-21T22:17:14.969Z,55.26
2022-09-21T22:19:42.913Z,55.83
2022-09-21T22:22:10.187Z,55.79
2022-09-21T22:24:37.470Z,56.05
2022-09-21T22:27:05.091Z,56.04
2022-09-21T22:29:32.358Z,55.37
2022-09-21T22:32:00.663Z,55.58
2022-09-21T22:34:28.263Z,55.95
2022-09-21T22:36:56.368Z,56.65
2022-09-21T22:39:23.718Z,56.92
2022-09-21T22:41:51.243Z,57.28
2022-09-21T22:44:18.586Z,56.90
2022-09-21T22:46:45.838Z,56.73
2022-09-21T22:49:13.387Z,57.07
2022-09-21T22:51:40.670Z,57.05
2022-09-21T22:54:08.061Z,56.93
2022-09-21T22:56:35.727Z,57.22
2022-09-21T22:59:04.230Z,56.98
2022-09-21T23:01:39.922Z,57.15
2022-09-21T23:04:10.130Z,57.03
2022-09-21T23:06:39.340Z,57.31
2022-09-21T23:09:09.224Z,57.05
2022-09-21T23:11:43.002Z,56.65
2022-09-21T23:14:11.141Z,56.68
2022-09-21T23:16:38.535Z,56.93
2022-09-21T23:19:06.030Z,56.75
2022-09-21T23:21:33.568Z,56.67
2022-09-21T23:24:02.441Z,56.90
2022-09-21T23:26:31.314Z,57.30
2022-09-21T23:29:00.631Z,57.47
2022-09-21T23:31:28.824Z,57.81
2022-09-21T23:33:58.141Z,57.89
2022-09-21T23:36:30.674Z,58.13
2022-09-21T23:38:58.645Z,58.21
2022-09-21T23:41:28.360Z,58.16
2022-09-21T23:43:56.524Z,58.07
2022-09-21T23:46:32.396Z,58.00
2022-09-21T23:49:00.782Z,58.03
2022-09-21T23:51:29.888Z,58.17
2022-09-21T23:53:58.046Z,58.26
2022-09-21T23:56:25.747Z,58.18
2022-09-21T23:58:53.118Z,57.98
